sensor_id;sensor_type;location;lat;lon;timestamp;pressure;altitude;pressure_sealevel;temperature;humidity
49841;BME280;35738;49.890;5.930;2022-10-16T00:01:21;95441.59;;;11.08;100.00
49841;BME280;35738;49.890;5.930;2022-10-16T00:03:48;95442.88;;;11.11;100.00
49841;BME280;35738;49.890;5.930;2022-10-16T00:06:16;95448.38;;;11.11;100.00
49841;BME280;35738;49.890;5.930;2022-10-16T00:08:44;95437.28;;;11.20;100.00
49841;BME280;35738;49.890;5.930;2022-10-16T00:11:14;95439.34;;;11.23;100.00
49841;BME280;35738;49.890;5.930;2022-10-16T00:13:43;95448.41;;;11.23;100.00
49841;BME280;35738;49.890;5.930;2022-10-16T00:16:11;95446.47;;;11.24;100.00
49841;BME280;35738;49.890;5.930;2022-10-16T00:18:38;95441.19;;;11.31;100.00
49841;BME280;35738;49.890;5.930;2022-10-16T00:21:08;95440.84;;;11.32;100.00
49841;BME280;35738;49.890;5.930;2022-10-16T00:23:35;95444.97;;;11.38;100.00
49841;BME280;35738;49.890;5.930;2022-10-16T00:26:05;95453.69;;;11.40;100.00
49841;BME280;35738;49.890;5.930;2022-10-16T00:28:34;95450.59;;;11.42;100.00
49841;BME280;35738;49.890;5.930;2022-10-16T00:31:06;95445.06;;;11.42;100.00
49841;BME280;35738;49.890;5.930;2022-10-16T00:33:34;95456.31;;;11.49;100.00
49841;BME280;35738;49.890;5.930;2022-10-16T00:36:02;95440.59;;;11.50;100.00
49841;BME280;35738;49.890;5.930;2022-10-16T00:38:29;95434.97;;;11.46;100.00
49841;BME280;35738;49.890;5.930;2022-10-16T00:40:56;95425.78;;;11.54;100.00
49841;BME280;35738;49.890;5.930;2022-10-16T00:48:38;95430.81;;;11.64;100.00
49841;BME280;35738;49.890;5.930;2022-10-16T00:51:06;95440.22;;;11.63;100.00
49841;BME280;35738;49.890;5.930;2022-10-16T00:53:34;95442.06;;;11.71;100.00
49841;BME280;35738;49.890;5.930;2022-10-16T00:56:02;95428.16;;;11.68;100.00
49841;BME280;35738;49.890;5.930;2022-10-16T00:58:29;95450.06;;;11.76;100.00
49841;BME280;35738;49.890;5.930;2022-10-16T01:00:56;95451.47;;;11.83;100.00
49841;BME280;35738;49.890;5.930;2022-10-16T01:03:34;95452.72;;;11.85;100.00
49841;BME280;35738;49.890;5.930;2022-10-16T01:09:06;95449.06;;;11.93;100.00
49841;BME280;35738;49.890;5.930;2022-10-16T01:11:38;95454.47;;;11.90;100.00
49841;BME280;35738;49.890;5.930;2022-10-16T01:14:17;95470.31;;;11.93;100.00
49841;BME280;35738;49.890;5.930;2022-10-16T01:17:09;95459.28;;;11.93;100.00
49841;BME280;35738;49.890;5.930;2022-10-16T01:28:18;95459.50;;;12.00;100.00
49841;BME280;35738;49.890;5.930;2022-10-16T01:30:52;95459.28;;;11.93;100.00
49841;BME280;35738;49.890;5.930;2022-10-16T01:33:35;95458.69;;;11.99;100.00
49841;BME280;35738;49.890;5.930;2022-10-16T01:36:13;95445.16;;;11.94;100.00
49841;BME280;35738;49.890;5.930;2022-10-16T01:38:43;95465.00;;;11.88;100.00
49841;BME280;35738;49.890;5.930;2022-10-16T01:41:18;95454.69;;;11.85;100.00
49841;BME280;35738;49.890;5.930;2022-10-16T01:44:08;95469.16;;;11.82;100.00
49841;BME280;35738;49.890;5.930;2022-10-16T01:46:38;95448.38;;;11.84;100.00
49841;BME280;35738;49.890;5.930;2022-10-16T01:49:06;95445.97;;;11.83;100.00
49841;BME280;35738;49.890;5.930;2022-10-16T01:51:35;95449.63;;;11.87;100.00
49841;BME280;35738;49.890;5.930;2022-10-16T01:54:04;95442.50;;;11.86;100.00
49841;BME280;35738;49.890;5.930;2022-10-16T01:56:34;95431.94;;;11.88;100.00
49841;BME280;35738;49.890;5.930;2022-10-16T01:59:12;95436.78;;;11.91;100.00
49841;BME280;35738;49.890;5.930;2022-10-16T02:01:42;95423.56;;;11.84;100.00
49841;BME280;35738;49.890;5.930;2022-10-16T02:04:24;95416.47;;;11.83;100.00
49841;BME280;35738;49.890;5.930;2022-10-16T02:06:53;95416.22;;;11.76;100.00
49841;BME280;35738;49.890;5.930;2022-10-16T02:09:20;95427.59;;;11.74;100.00
49841;BME280;35738;49.890;5.930;2022-10-16T02:11:47;95433.91;;;11.75;100.00
49841;BME280;35738;49.890;5.930;2022-10-16T02:14:15;95443.66;;;11.72;100.00
49841;BME280;35738;49.890;5.930;2022-10-16T02:16:45;95440.69;;;11.77;100.00
49841;BME280;35738;49.890;5.930;2022-10-16T02:19:13;95434.50;;;11.81;100.00
49841;BME280;35738;49.890;5.930;2022-10-16T02:21:54;95431.59;;;11.77;100.00
49841;BME280;35738;49.890;5.930;2022-10-16T02:30:34;95454.47;;;11.77;100.00
49841;BME280;35738;49.890;5.930;2022-10-16T02:33:06;95449.63;;;11.74;100.00
49841;BME280;35738;49.890;5.930;2022-10-16T02:35:34;95450.31;;;11.71;100.00
49841;BME280;35738;49.890;5.930;2022-10-16T02:38:02;95437.25;;;11.68;100.00
49841;BME280;35738;49.890;5.930;2022-10-16T02:40:29;95437.25;;;11.68;100.00
49841;BME280;35738;49.890;5.930;2022-10-16T02:42:56;95445.50;;;11.68;100.00
49841;BME280;35738;49.890;5.930;2022-10-16T02:45:23;95452.97;;;11.68;100.00
49841;BME280;35738;49.890;5.930;2022-10-16T02:47:50;95451.00;;;11.68;100.00
49841;BME280;35738;49.890;5.930;2022-10-16T02:50:17;95457.56;;;11.64;100.00
49841;BME280;35738;49.890;5.930;2022-10-16T02:52:44;95471.34;;;11.64;100.00
49841;BME280;35738;49.890;5.930;2022-10-16T02:55:10;95472.25;;;11.68;100.00
49841;BME280;35738;49.890;5.930;2022-10-16T02:57:37;95474.19;;;11.67;100.00
49841;BME280;35738;49.890;5.930;2022-10-16T03:00:05;95479.47;;;11.60;100.00
49841;BME280;35738;49.890;5.930;2022-10-16T03:02:32;95484.53;;;11.70;100.00
49841;BME280;35738;49.890;5.930;2022-10-16T03:04:58;95493.59;;;11.59;100.00
49841;BME280;35738;49.890;5.930;2022-10-16T03:07:25;95484.31;;;11.63;100.00
49841;BME280;35738;49.890;5.930;2022-10-16T03:09:52;95492.22;;;11.65;100.00
49841;BME280;35738;49.890;5.930;2022-10-16T03:12:19;95497.72;;;11.53;100.00
49841;BME280;35738;49.890;5.930;2022-10-16T03:14:46;95494.28;;;11.56;100.00
49841;BME280;35738;49.890;5.930;2022-10-16T03:17:13;95481.66;;;11.55;100.00
49841;BME280;35738;49.890;5.930;2022-10-16T03:19:39;95493.03;;;11.53;100.00
49841;BME280;35738;49.890;5.930;2022-10-16T03:22:06;95487.06;;;11.51;100.00
49841;BME280;35738;49.890;5.930;2022-10-16T03:24:33;95490.03;;;11.58;100.00
49841;BME280;35738;49.890;5.930;2022-10-16T03:26:59;95498.31;;;11.58;100.00
49841;BME280;35738;49.890;5.930;2022-10-16T03:29:26;95501.75;;;11.55;100.00
49841;BME280;35738;49.890;5.930;2022-10-16T03:31:56;95501.75;;;11.55;100.00
49841;BME280;35738;49.890;5.930;2022-10-16T03:34:22;95516.22;;;11.52;100.00
49841;BME280;35738;49.890;5.930;2022-10-16T03:36:49;95509.56;;;11.53;100.00
49841;BME280;35738;49.890;5.930;2022-10-16T03:39:16;95503.94;;;11.50;100.00
49841;BME280;35738;49.890;5.930;2022-10-16T03:41:43;95497.38;;;11.54;100.00
49841;BME280;35738;49.890;5.930;2022-10-16T03:44:09;95494.28;;;11.56;100.00
49841;BME280;35738;49.890;5.930;2022-10-16T03:46:36;95494.28;;;11.56;100.00
49841;BME280;35738;49.890;5.930;2022-10-16T03:49:03;95477.06;;;11.59;100.00
49841;BME280;35738;49.890;5.930;2022-10-16T03:51:34;95476.28;;;11.58;100.00
49841;BME280;35738;49.890;5.930;2022-10-16T03:54:00;95469.16;;;11.57;100.00
49841;BME280;35738;49.890;5.930;2022-10-16T03:56:27;95478.22;;;11.58;100.00
49841;BME280;35738;49.890;5.930;2022-10-16T03:58:54;95491.06;;;11.54;100.00
49841;BME280;35738;49.890;5.930;2022-10-16T04:01:20;95475.69;;;11.53;100.00
49841;BME280;35738;49.890;5.930;2022-10-16T04:03:47;95475.25;;;11.51;100.00
49841;BME280;35738;49.890;5.930;2022-10-16T04:06:13;95488.66;;;11.52;100.00
49841;BME280;35738;49.890;5.930;2022-10-16T04:08:42;95493.25;;;11.48;100.00
49841;BME280;35738;49.890;5.930;2022-10-16T04:11:09;95498.09;;;11.51;100.00
49841;BME280;35738;49.890;5.930;2022-10-16T04:13:36;95503.94;;;11.50;100.00
49841;BME280;35738;49.890;5.930;2022-10-16T04:16:03;95514.50;;;11.48;100.00
49841;BME280;35738;49.890;5.930;2022-10-16T04:18:30;95509.09;;;11.51;100.00
49841;BME280;35738;49.890;5.930;2022-10-16T04:20:56;95518.50;;;11.50;100.00
49841;BME280;35738;49.890;5.930;2022-10-16T04:23:23;95527.00;;;11.45;100.00
49841;BME280;35738;49.890;5.930;2022-10-16T04:25:50;95525.38;;;11.44;100.00
49841;BME280;35738;49.890;5.930;2022-10-16T04:28:17;95515.19;;;11.44;100.00
49841;BME280;35738;49.890;5.930;2022-10-16T04:30:43;95508.28;;;11.51;100.00
49841;BME280;35738;49.890;5.930;2022-10-16T04:33:10;95513.00;;;11.50;100.00
49841;BME280;35738;49.890;5.930;2022-10-16T04:35:37;95509.91;;;11.52;100.00
49841;BME280;35738;49.890;5.930;2022-10-16T04:38:03;95518.38;;;11.46;100.00
49841;BME280;35738;49.890;5.930;2022-10-16T04:40:30;95526.66;;;11.46;100.00
49841;BME280;35738;49.890;5.930;2022-10-16T04:43:03;95525.84;;;11.46;100.00
49841;BME280;35738;49.890;5.930;2022-10-16T04:45:30;95517.34;;;11.51;100.00
49841;BME280;35738;49.890;5.930;2022-10-16T04:47:57;95516.66;;;11.54;100.00
49841;BME280;35738;49.890;5.930;2022-10-16T04:50:24;95512.31;;;11.53;100.00
49841;BME280;35738;49.890;5.930;2022-10-16T04:52:51;95520.56;;;11.53;100.00
49841;BME280;35738;49.890;5.930;2022-10-16T04:55:18;95521.94;;;11.59;100.00
49841;BME280;35738;49.890;5.930;2022-10-16T04:57:44;95525.28;;;11.53;100.00
49841;BME280;35738;49.890;5.930;2022-10-16T05:00:11;95533.66;;;11.56;100.00
49841;BME280;35738;49.890;5.930;2022-10-16T05:02:38;95533.19;;;11.54;100.00
49841;BME280;35738;49.890;5.930;2022-10-16T05:05:05;95541.56;;;11.58;100.00
49841;BME280;35738;49.890;5.930;2022-10-16T05:07:32;95545.94;;;11.59;100.00
49841;BME280;35738;49.890;5.930;2022-10-16T05:09:59;95546.28;;;11.57;100.00
49841;BME280;35738;49.890;5.930;2022-10-16T05:12:25;95553.50;;;11.62;100.00
49841;BME280;35738;49.890;5.930;2022-10-16T05:14:52;95558.22;;;11.61;100.00
49841;BME280;35738;49.890;5.930;2022-10-16T05:17:18;95556.38;;;11.65;100.00
49841;BME280;35738;49.890;5.930;2022-10-16T05:19:45;95554.31;;;11.62;100.00
49841;BME280;35738;49.890;5.930;2022-10-16T05:22:11;95555.00;;;11.59;100.00
49841;BME280;35738;49.890;5.930;2022-10-16T05:24:38;95551.09;;;11.60;100.00
49841;BME280;35738;49.890;5.930;2022-10-16T05:27:04;95561.19;;;11.56;100.00
49841;BME280;35738;49.890;5.930;2022-10-16T05:29:31;95551.09;;;11.60;100.00
49841;BME280;35738;49.890;5.930;2022-10-16T05:31:59;95552.81;;;11.65;100.00
49841;BME280;35738;49.890;5.930;2022-10-16T05:34:25;95563.50;;;11.66;100.00
49841;BME280;35738;49.890;5.930;2022-10-16T05:36:52;95567.41;;;11.65;100.00
49841;BME280;35738;49.890;5.930;2022-10-16T05:39:19;95553.16;;;11.63;100.00
49841;BME280;35738;49.890;5.930;2022-10-16T05:41:45;95557.88;;;11.75;100.00
49841;BME280;35738;49.890;5.930;2022-10-16T05:44:12;95558.56;;;11.72;100.00
49841;BME280;35738;49.890;5.930;2022-10-16T05:46:38;95553.97;;;11.76;100.00
49841;BME280;35738;49.890;5.930;2022-10-16T05:49:05;95548.69;;;11.71;100.00
49841;BME280;35738;49.890;5.930;2022-10-16T05:51:32;95558.56;;;11.72;100.00
49841;BME280;35738;49.890;5.930;2022-10-16T05:53:58;95564.28;;;11.67;100.00
49841;BME280;35738;49.890;5.930;2022-10-16T05:56:25;95579.00;;;11.71;100.00
49841;BME280;35738;49.890;5.930;2022-10-16T05:58:52;95560.84;;;11.70;100.00
49841;BME280;35738;49.890;5.930;2022-10-16T06:01:19;95561.66;;;11.70;100.00
49841;BME280;35738;49.890;5.930;2022-10-16T06:03:47;95568.78;;;11.71;100.00
49841;BME280;35738;49.890;5.930;2022-10-16T06:06:16;95589.47;;;11.77;100.00
49841;BME280;35738;49.890;5.930;2022-10-16T06:08:44;95590.13;;;11.74;100.00
49841;BME280;35738;49.890;5.930;2022-10-16T06:11:17;95595.91;;;11.82;100.00
49841;BME280;35738;49.890;5.930;2022-10-16T06:13:44;95599.19;;;11.75;100.00
49841;BME280;35738;49.890;5.930;2022-10-16T06:16:12;95600.81;;;11.76;100.00
49841;BME280;35738;49.890;5.930;2022-10-16T06:18:39;95596.69;;;11.82;100.00
49841;BME280;35738;49.890;5.930;2022-10-16T06:21:14;95611.50;;;11.77;100.00
49841;BME280;35738;49.890;5.930;2022-10-16T06:23:42;95599.00;;;11.80;100.00
49841;BME280;35738;49.890;5.930;2022-10-16T06:26:17;95594.41;;;11.84;100.00
49841;BME280;35738;49.890;5.930;2022-10-16T06:28:44;95589.59;;;11.81;100.00
49841;BME280;35738;49.890;5.930;2022-10-16T06:31:12;95595.22;;;11.85;100.00
49841;BME280;35738;49.890;5.930;2022-10-16T06:33:39;95600.25;;;11.83;100.00
49841;BME280;35738;49.890;5.930;2022-10-16T06:36:11;95607.03;;;11.85;100.00
49841;BME280;35738;49.890;5.930;2022-10-16T06:38:39;95613.34;;;11.86;100.00
49841;BME280;35738;49.890;5.930;2022-10-16T06:41:07;95623.03;;;11.92;100.00
49841;BME280;35738;49.890;5.930;2022-10-16T06:43:33;95622.06;;;11.88;100.00
49841;BME280;35738;49.890;5.930;2022-10-16T06:46:05;95622.00;;;11.96;100.00
49841;BME280;35738;49.890;5.930;2022-10-16T06:48:31;95629.34;;;11.92;100.00
49841;BME280;35738;49.890;5.930;2022-10-16T06:51:04;95648.47;;;11.89;100.00
49841;BME280;35738;49.890;5.930;2022-10-16T06:53:33;95656.09;;;11.92;100.00
49841;BME280;35738;49.890;5.930;2022-10-16T06:56:18;95659.78;;;11.96;100.00
49841;BME280;35738;49.890;5.930;2022-10-16T06:58:46;95668.13;;;11.87;100.00
49841;BME280;35738;49.890;5.930;2022-10-16T07:01:13;95681.00;;;11.95;100.00
49841;BME280;35738;49.890;5.930;2022-10-16T07:03:42;95664.94;;;11.97;100.00
49841;BME280;35738;49.890;5.930;2022-10-16T07:06:10;95670.69;;;12.04;100.00
49841;BME280;35738;49.890;5.930;2022-10-16T07:08:40;95665.16;;;12.04;100.00
49841;BME280;35738;49.890;5.930;2022-10-16T07:11:09;95667.94;;;12.04;100.00
49841;BME280;35738;49.890;5.930;2022-10-16T07:13:37;95668.38;;;12.06;100.00
49841;BME280;35738;49.890;5.930;2022-10-16T07:16:09;95682.06;;;12.15;100.00
49841;BME280;35738;49.890;5.930;2022-10-16T07:18:37;95689.97;;;12.17;100.00
49841;BME280;35738;49.890;5.930;2022-10-16T07:21:11;95683.66;;;12.28;100.00
49841;BME280;35738;49.890;5.930;2022-10-16T07:23:38;95692.84;;;12.32;100.00
49841;BME280;35738;49.890;5.930;2022-10-16T07:26:06;95687.56;;;12.39;100.00
49841;BME280;35738;49.890;5.930;2022-10-16T07:28:33;95695.16;;;12.43;100.00
49841;BME280;35738;49.890;5.930;2022-10-16T07:31:09;95699.50;;;12.44;100.00
49841;BME280;35738;49.890;5.930;2022-10-16T07:33:38;95702.03;;;12.49;100.00
49841;BME280;35738;49.890;5.930;2022-10-16T07:36:06;95700.44;;;12.35;100.00
49841;BME280;35738;49.890;5.930;2022-10-16T07:38:32;95705.50;;;12.46;100.00
49841;BME280;35738;49.890;5.930;2022-10-16T07:41:02;95717.69;;;12.45;100.00
49841;BME280;35738;49.890;5.930;2022-10-16T07:43:29;95731.59;;;12.36;100.00
49841;BME280;35738;49.890;5.930;2022-10-16T07:45:56;95735.38;;;12.31;100.00
49841;BME280;35738;49.890;5.930;2022-10-16T07:48:28;95734.00;;;12.37;100.00
49841;BME280;35738;49.890;5.930;2022-10-16T07:51:02;95729.16;;;12.47;100.00
49841;BME280;35738;49.890;5.930;2022-10-16T07:53:29;95738.34;;;12.51;100.00
49841;BME280;35738;49.890;5.930;2022-10-16T07:56:00;95734.78;;;12.50;100.00
49841;BME280;35738;49.890;5.930;2022-10-16T07:58:28;95724.91;;;12.49;100.00
49841;BME280;35738;49.890;5.930;2022-10-16T08:00:56;95731.56;;;12.60;100.00
49841;BME280;35738;49.890;5.930;2022-10-16T08:03:24;95747.69;;;12.70;100.00
49841;BME280;35738;49.890;5.930;2022-10-16T08:05:51;95754.69;;;12.80;100.00
49841;BME280;35738;49.890;5.930;2022-10-16T08:08:18;95755.59;;;12.84;100.00
49841;BME280;35738;49.890;5.930;2022-10-16T08:10:45;95750.41;;;12.95;100.00
49841;BME280;35738;49.890;5.930;2022-10-16T08:13:12;95759.69;;;13.15;100.00
49841;BME280;35738;49.890;5.930;2022-10-16T08:15:42;95760.84;;;13.26;100.00
49841;BME280;35738;49.890;5.930;2022-10-16T08:18:10;95758.53;;;13.28;100.00
49841;BME280;35738;49.890;5.930;2022-10-16T08:20:37;95767.53;;;13.25;100.00
49841;BME280;35738;49.890;5.930;2022-10-16T08:23:04;95769.00;;;13.34;100.00
49841;BME280;35738;49.890;5.930;2022-10-16T08:25:34;95776.25;;;13.27;100.00
49841;BME280;35738;49.890;5.930;2022-10-16T08:28:03;95775.34;;;13.23;100.00
49841;BME280;35738;49.890;5.930;2022-10-16T08:30:31;95775.09;;;13.40;100.00
49841;BME280;35738;49.890;5.930;2022-10-16T08:32:58;95780.59;;;13.52;100.00
49841;BME280;35738;49.890;5.930;2022-10-16T08:35:25;95771.25;;;13.57;100.00
49841;BME280;35738;49.890;5.930;2022-10-16T08:37:52;95780.50;;;13.77;100.00
49841;BME280;35738;49.890;5.930;2022-10-16T08:40:30;95775.41;;;13.51;100.00
49841;BME280;35738;49.890;5.930;2022-10-16T08:48:47;95787.31;;;13.95;100.00
49841;BME280;35738;49.890;5.930;2022-10-16T08:51:29;95798.22;;;13.76;100.00
49841;BME280;35738;49.890;5.930;2022-10-16T08:54:05;95801.44;;;13.78;100.00
49841;BME280;35738;49.890;5.930;2022-10-16T08:56:32;95787.78;;;13.69;100.00
49841;BME280;35738;49.890;5.930;2022-10-16T08:59:04;95781.56;;;13.72;100.00
49841;BME280;35738;49.890;5.930;2022-10-16T09:01:41;95789.94;;;13.76;100.00
49841;BME280;35738;49.890;5.930;2022-10-16T09:07:19;95784.66;;;13.98;100.00
49841;BME280;35738;49.890;5.930;2022-10-16T09:10:01;95776.28;;;14.11;100.00
49841;BME280;35738;49.890;5.930;2022-10-16T09:12:40;95781.13;;;14.14;100.00
49841;BME280;35738;49.890;5.930;2022-10-16T09:23:28;95806.84;;;14.30;100.00
49841;BME280;35738;49.890;5.930;2022-10-16T09:25:57;95806.75;;;14.26;98.29
49841;BME280;35738;49.890;5.930;2022-10-16T09:28:25;95810.44;;;14.30;99.17
49841;BME280;35738;49.890;5.930;2022-10-16T09:30:52;95804.09;;;14.30;97.32
49841;BME280;35738;49.890;5.930;2022-10-16T09:33:22;95815.38;;;14.53;98.53
49841;BME280;35738;49.890;5.930;2022-10-16T09:35:51;95809.31;;;14.63;99.04
49841;BME280;35738;49.890;5.930;2022-10-16T09:38:32;95817.25;;;14.65;98.15
49841;BME280;35738;49.890;5.930;2022-10-16T09:43:42;95824.94;;;14.71;97.46
49841;BME280;35738;49.890;5.930;2022-10-16T09:49:00;95818.06;;;14.65;95.51
49841;BME280;35738;49.890;5.930;2022-10-16T09:51:33;95817.53;;;14.59;96.04
49841;BME280;35738;49.890;5.930;2022-10-16T09:56:35;95814.13;;;14.66;96.70
49841;BME280;35738;49.890;5.930;2022-10-16T09:59:10;95823.50;;;14.77;95.75
49841;BME280;35738;49.890;5.930;2022-10-16T10:01:41;95814.94;;;14.82;96.10
49841;BME280;35738;49.890;5.930;2022-10-16T10:04:08;95813.34;;;14.81;96.62
49841;BME280;35738;49.890;5.930;2022-10-16T10:06:46;95821.47;;;14.74;95.63
49841;BME280;35738;49.890;5.930;2022-10-16T10:09:37;95817.78;;;14.70;95.54
49841;BME280;35738;49.890;5.930;2022-10-16T10:12:06;95819.41;;;14.71;98.31
49841;BME280;35738;49.890;5.930;2022-10-16T10:14:48;95819.13;;;14.76;97.24
49841;BME280;35738;49.890;5.930;2022-10-16T10:17:18;95819.06;;;15.04;97.30
49841;BME280;35738;49.890;5.930;2022-10-16T10:19:55;95819.91;;;15.24;96.42
49841;BME280;35738;49.890;5.930;2022-10-16T10:22:39;95827.34;;;15.20;94.51
49841;BME280;35738;49.890;5.930;2022-10-16T10:28:02;95829.72;;;15.37;93.21
49841;BME280;35738;49.890;5.930;2022-10-16T10:36:36;95834.91;;;15.39;94.15
49841;BME280;35738;49.890;5.930;2022-10-16T10:39:25;95836.81;;;15.19;93.91
49841;BME280;35738;49.890;5.930;2022-10-16T10:47:38;95831.75;;;15.05;95.09
49841;BME280;35738;49.890;5.930;2022-10-16T11:06:06;95842.22;;;15.82;96.83
49841;BME280;35738;49.890;5.930;2022-10-16T11:08:42;95846.41;;;15.92;95.08
49841;BME280;35738;49.890;5.930;2022-10-16T11:11:18;95845.81;;;16.02;94.93
49841;BME280;35738;49.890;5.930;2022-10-16T11:14:25;95849.38;;;16.02;94.40
49841;BME280;35738;49.890;5.930;2022-10-16T11:16:57;95855.88;;;15.91;92.28
49841;BME280;35738;49.890;5.930;2022-10-16T11:24:49;95857.25;;;15.62;93.32
49841;BME280;35738;49.890;5.930;2022-10-16T11:27:24;95856.16;;;15.66;93.29
49841;BME280;35738;49.890;5.930;2022-10-16T11:30:02;95859.00;;;15.70;92.35
49841;BME280;35738;49.890;5.930;2022-10-16T11:32:35;95862.66;;;15.74;92.28
49841;BME280;35738;49.890;5.930;2022-10-16T11:35:19;95853.91;;;15.72;92.64
49841;BME280;35738;49.890;5.930;2022-10-16T11:37:49;95848.88;;;15.77;93.17
49841;BME280;35738;49.890;5.930;2022-10-16T11:40:25;95843.84;;;15.83;91.24
49841;BME280;35738;49.890;5.930;2022-10-16T11:43:04;95836.69;;;15.82;92.07
49841;BME280;35738;49.890;5.930;2022-10-16T11:45:59;95851.72;;;15.81;91.84
49841;BME280;35738;49.890;5.930;2022-10-16T11:48:36;95849.22;;;15.76;93.32
49841;BME280;35738;49.890;5.930;2022-10-16T11:51:14;95850.56;;;15.82;92.84
49841;BME280;35738;49.890;5.930;2022-10-16T11:54:08;95845.09;;;16.05;91.71
49841;BME280;35738;49.890;5.930;2022-10-16T11:56:42;95847.69;;;16.17;92.78
49841;BME280;35738;49.890;5.930;2022-10-16T12:06:02;95825.00;;;15.92;92.50
49841;BME280;35738;49.890;5.930;2022-10-16T12:08:09;95833.97;;;16.05;92.27
49841;BME280;35738;49.890;5.930;2022-10-16T12:10:38;95834.63;;;16.17;91.70
49841;BME280;35738;49.890;5.930;2022-10-16T12:13:28;95832.44;;;16.27;91.61
49841;BME280;35738;49.890;5.930;2022-10-16T12:18:31;95845.56;;;16.30;91.77
49841;BME280;35738;49.890;5.930;2022-10-16T12:20:59;95834.13;;;16.12;91.08
49841;BME280;35738;49.890;5.930;2022-10-16T12:35:29;95850.63;;;16.05;93.24
49841;BME280;35738;49.890;5.930;2022-10-16T12:38:21;95842.75;;;16.07;94.08
49841;BME280;35738;49.890;5.930;2022-10-16T12:40:57;95827.78;;;16.11;93.52
49841;BME280;35738;49.890;5.930;2022-10-16T12:43:40;95822.00;;;16.01;93.57
49841;BME280;35738;49.890;5.930;2022-10-16T12:48:42;95826.84;;;15.84;94.24
49841;BME280;35738;49.890;5.930;2022-10-16T12:54:16;95820.78;;;15.98;94.12
49841;BME280;35738;49.890;5.930;2022-10-16T12:57:05;95824.28;;;15.95;94.60
49841;BME280;35738;49.890;5.930;2022-10-16T13:08:01;95826.75;;;15.62;97.49
49841;BME280;35738;49.890;5.930;2022-10-16T13:16:22;95825.25;;;15.33;99.19
49841;BME280;35738;49.890;5.930;2022-10-16T13:32:08;95830.19;;;15.23;100.00
49841;BME280;35738;49.890;5.930;2022-10-16T13:34:45;95820.53;;;15.17;100.00
49841;BME280;35738;49.890;5.930;2022-10-16T13:37:20;95829.22;;;15.16;100.00
49841;BME280;35738;49.890;5.930;2022-10-16T13:39:47;95828.38;;;15.31;100.00
49841;BME280;35738;49.890;5.930;2022-10-16T13:42:23;95825.34;;;15.36;100.00
49841;BME280;35738;49.890;5.930;2022-10-16T13:44:55;95825.22;;;15.48;100.00
49841;BME280;35738;49.890;5.930;2022-10-16T13:47:24;95826.38;;;15.47;100.00
49841;BME280;35738;49.890;5.930;2022-10-16T13:50:09;95831.75;;;15.40;100.00
49841;BME280;35738;49.890;5.930;2022-10-16T13:52:38;95825.41;;;15.05;100.00
49841;BME280;35738;49.890;5.930;2022-10-16T13:55:16;95829.56;;;15.14;100.00
49841;BME280;35738;49.890;5.930;2022-10-16T13:57:43;95824.94;;;15.18;100.00
49841;BME280;35738;49.890;5.930;2022-10-16T14:00:22;95820.34;;;15.26;100.00
49841;BME280;35738;49.890;5.930;2022-10-16T14:02:57;95829.81;;;15.25;100.00
49841;BME280;35738;49.890;5.930;2022-10-16T14:05:27;95837.78;;;15.26;100.00
49841;BME280;35738;49.890;5.930;2022-10-16T14:07:55;95835.44;;;15.29;100.00
49841;BME280;35738;49.890;5.930;2022-10-16T14:10:27;95840.75;;;15.18;100.00
49841;BME280;35738;49.890;5.930;2022-10-16T14:13:04;95837.97;;;15.18;100.00
49841;BME280;35738;49.890;5.930;2022-10-16T14:15:33;95843.00;;;15.12;100.00
49841;BME280;35738;49.890;5.930;2022-10-16T14:18:01;95839.22;;;15.20;100.00
49841;BME280;35738;49.890;5.930;2022-10-16T14:20:31;95845.81;;;15.32;100.00
49841;BME280;35738;49.890;5.930;2022-10-16T14:23:04;95846.44;;;15.25;100.00
49841;BME280;35738;49.890;5.930;2022-10-16T14:25:32;95838.59;;;15.27;100.00
49841;BME280;35738;49.890;5.930;2022-10-16T14:28:20;95827.53;;;15.11;100.00
49841;BME280;35738;49.890;5.930;2022-10-16T14:30:58;95835.19;;;15.18;100.00
49841;BME280;35738;49.890;5.930;2022-10-16T14:38:29;95838.78;;;15.18;100.00
49841;BME280;35738;49.890;5.930;2022-10-16T14:40:58;95828.41;;;15.15;100.00
49841;BME280;35738;49.890;5.930;2022-10-16T14:45:58;95837.88;;;15.14;100.00
49841;BME280;35738;49.890;5.930;2022-10-16T14:48:25;95829.06;;;15.09;100.00
49841;BME280;35738;49.890;5.930;2022-10-16T14:50:52;95839.78;;;15.10;100.00
49841;BME280;35738;49.890;5.930;2022-10-16T14:53:18;95840.66;;;14.83;100.00
49841;BME280;35738;49.890;5.930;2022-10-16T14:55:45;95832.56;;;14.90;100.00
49841;BME280;35738;49.890;5.930;2022-10-16T14:58:17;95827.09;;;14.62;100.00
49841;BME280;35738;49.890;5.930;2022-10-16T15:00:45;95824.94;;;14.71;100.00
49841;BME280;35738;49.890;5.930;2022-10-16T15:03:12;95830.94;;;14.73;100.00
49841;BME280;35738;49.890;5.930;2022-10-16T15:05:39;95826.28;;;14.77;100.00
49841;BME280;35738;49.890;5.930;2022-10-16T15:08:06;95824.59;;;14.88;100.00
49841;BME280;35738;49.890;5.930;2022-10-16T15:10:38;95832.19;;;14.91;100.00
49841;BME280;35738;49.890;5.930;2022-10-16T15:13:06;95828.53;;;15.03;100.00
49841;BME280;35738;49.890;5.930;2022-10-16T15:15:52;95831.91;;;15.12;100.00
49841;BME280;35738;49.890;5.930;2022-10-16T15:18:19;95832.88;;;15.20;100.00
49841;BME280;35738;49.890;5.930;2022-10-16T15:20:49;95827.97;;;15.13;100.00
49841;BME280;35738;49.890;5.930;2022-10-16T15:23:18;95836.38;;;15.01;100.00
49841;BME280;35738;49.890;5.930;2022-10-16T15:25:48;95828.59;;;15.07;100.00
49841;BME280;35738;49.890;5.930;2022-10-16T15:28:16;95839.88;;;14.98;100.00
49841;BME280;35738;49.890;5.930;2022-10-16T15:30:43;95835.75;;;15.08;100.00
49841;BME280;35738;49.890;5.930;2022-10-16T15:33:19;95834.22;;;14.63;100.00
49841;BME280;35738;49.890;5.930;2022-10-16T15:35:48;95834.75;;;14.84;100.00